createdAt,value
2017-12-20T00:01:22.746Z,40.27
2017-12-20T00:03:50.407Z,39.33
2017-12-20T00:06:17.901Z,41.90
2017-12-20T00:08:45.378Z,43.27
2017-12-20T00:11:12.864Z,42.90
2017-12-20T00:13:40.371Z,41.27
2017-12-20T00:16:08.616Z,38.67
2017-12-20T00:18:36.113Z,39.90
2017-12-20T00:21:03.603Z,43.90
2017-12-20T00:23:31.098Z,44.40
2017-12-20T00:25:58.574Z,39.33
2017-12-20T00:28:26.804Z,38.83
2017-12-20T00:30:54.281Z,37.40
2017-12-20T00:33:21.758Z,39.93
2017-12-20T00:35:49.261Z,39.80
2017-12-20T00:38:16.767Z,39.50
2017-12-20T00:40:44.258Z,37.87
2017-12-20T00:43:11.718Z,40.40
2017-12-20T00:45:39.243Z,35.90
2017-12-20T00:48:07.489Z,41.40
2017-12-20T00:50:34.964Z,39.90
2017-12-20T00:53:02.430Z,36.07
2017-12-20T00:55:29.945Z,36.97
2017-12-20T00:57:57.421Z,38.40
2017-12-20T01:00:24.891Z,34.67
2017-12-20T01:02:52.406Z,36.10
2017-12-20T01:05:19.875Z,38.50
2017-12-20T01:07:47.352Z,36.47
2017-12-20T01:10:14.817Z,39.23
2017-12-20T01:12:42.286Z,41.37
2017-12-20T01:15:09.777Z,37.33
2017-12-20T01:17:37.252Z,36.17
2017-12-20T01:20:04.764Z,37.43
2017-12-20T01:22:32.249Z,35.40
2017-12-20T01:25:00.527Z,37.10
2017-12-20T01:27:28.030Z,37.03
2017-12-20T01:29:55.518Z,37.40
2017-12-20T01:32:23.054Z,37.20
2017-12-20T01:34:50.568Z,37.30
2017-12-20T01:37:18.816Z,37.50
2017-12-20T01:39:46.289Z,37.07
2017-12-20T01:42:13.840Z,38.93
2017-12-20T01:44:41.311Z,39.17
2017-12-20T01:47:08.921Z,37.10
2017-12-20T01:49:36.500Z,35.83
2017-12-20T01:52:04.000Z,37.87
2017-12-20T01:54:31.502Z,38.23
2017-12-20T01:56:58.998Z,35.37
2017-12-20T01:59:26.770Z,34.90
2017-12-20T02:01:55.021Z,38.53
2017-12-20T02:04:22.498Z,36.00
2017-12-20T02:06:49.966Z,35.97
2017-12-20T02:09:17.742Z,34.43
2017-12-20T02:11:45.216Z,38.80
2017-12-20T02:14:12.706Z,33.97
2017-12-20T02:16:40.211Z,37.00
2017-12-20T02:19:07.719Z,37.33
2017-12-20T02:21:35.437Z,39.50
2017-12-20T02:24:02.950Z,38.47
2017-12-20T02:26:30.704Z,42.27
2017-12-20T02:28:58.210Z,38.03
2017-12-20T02:31:25.726Z,39.23
2017-12-20T02:33:53.248Z,40.17
2017-12-20T02:36:21.524Z,43.60
2017-12-20T02:38:49.766Z,41.43
2017-12-20T02:41:17.266Z,39.67
2017-12-20T02:43:45.539Z,41.27
2017-12-20T02:46:13.798Z,41.10
2017-12-20T02:48:41.283Z,41.30
2017-12-20T02:51:09.526Z,43.40
2017-12-20T02:53:37.005Z,44.23
2017-12-20T02:56:04.497Z,42.57
2017-12-20T02:58:32.026Z,42.90
2017-12-20T03:01:00.346Z,40.57
2017-12-20T03:03:27.829Z,41.30
2017-12-20T03:05:55.299Z,43.50
2017-12-20T03:08:22.774Z,43.07
2017-12-20T03:10:50.260Z,44.40
2017-12-20T03:13:17.775Z,42.87
2017-12-20T03:15:45.244Z,43.90
2017-12-20T03:18:12.739Z,43.63
2017-12-20T03:20:40.244Z,40.63
2017-12-20T03:23:07.786Z,43.07
2017-12-20T03:25:35.267Z,43.67
2017-12-20T03:28:02.835Z,43.13
2017-12-20T03:30:30.314Z,45.70
2017-12-20T03:32:57.872Z,42.17
2017-12-20T03:35:25.336Z,47.63
2017-12-20T03:37:53.705Z,44.93
2017-12-20T03:40:21.939Z,45.83
2017-12-20T03:42:49.449Z,44.20
2017-12-20T03:45:17.695Z,41.80
2017-12-20T03:47:45.157Z,47.47
2017-12-20T03:50:12.690Z,45.10
2017-12-20T03:52:40.204Z,46.00
2017-12-20T03:55:07.674Z,46.70
2017-12-20T03:57:35.968Z,46.10
2017-12-20T04:00:03.507Z,46.33
2017-12-20T04:02:31.734Z,46.87
2017-12-20T04:04:59.249Z,46.30
2017-12-20T04:07:26.766Z,45.20
2017-12-20T04:09:54.246Z,45.10
2017-12-20T04:12:21.732Z,47.67
2017-12-20T04:14:49.197Z,49.43
2017-12-20T04:17:17.508Z,42.47
2017-12-20T04:19:44.994Z,45.23
2017-12-20T04:22:12.479Z,44.37
2017-12-20T04:24:40.710Z,45.80
2017-12-20T04:27:08.186Z,45.80
2017-12-20T04:29:35.665Z,46.73
2017-12-20T04:32:03.998Z,46.93
2017-12-20T04:34:31.489Z,46.93
2017-12-20T04:36:58.991Z,49.60
2017-12-20T04:39:26.492Z,48.50
2017-12-20T04:41:54.054Z,46.50
2017-12-20T04:44:21.548Z,45.20
2017-12-20T04:46:49.814Z,46.50
2017-12-20T04:49:18.064Z,53.80
2017-12-20T04:51:45.554Z,48.57
2017-12-20T04:54:13.075Z,48.40
2017-12-20T04:56:40.617Z,47.67
2017-12-20T04:59:08.079Z,49.00
2017-12-20T05:01:35.558Z,49.00
2017-12-20T05:04:03.043Z,47.53
2017-12-20T05:06:31.342Z,47.17
2017-12-20T05:08:58.820Z,47.30
2017-12-20T05:11:26.575Z,48.87
2017-12-20T05:13:54.042Z,49.10
2017-12-20T05:16:21.562Z,49.70
2017-12-20T05:18:49.808Z,45.90
2017-12-20T05:21:17.286Z,47.70
2017-12-20T05:23:44.792Z,47.37
2017-12-20T05:26:12.292Z,51.27
2017-12-20T05:28:39.766Z,49.20
2017-12-20T05:31:08.031Z,45.60
2017-12-20T05:33:36.897Z,52.93
2017-12-20T05:36:05.192Z,47.73
2017-12-20T05:38:32.665Z,49.43
2017-12-20T05:41:00.133Z,49.20
2017-12-20T05:43:28.380Z,49.70
2017-12-20T05:45:55.947Z,51.03
2017-12-20T05:48:23.430Z,49.70
2017-12-20T05:50:52.114Z,47.30
2017-12-20T05:53:20.356Z,55.97
2017-12-20T05:55:47.856Z,48.33
2017-12-20T05:58:16.189Z,52.47
2017-12-20T06:00:43.750Z,51.97
2017-12-20T06:03:11.308Z,52.57
2017-12-20T06:05:38.797Z,52.80
2017-12-20T06:08:07.024Z,49.90
2017-12-20T06:10:34.510Z,49.90
2017-12-20T06:13:02.128Z,51.53
2017-12-20T06:15:29.588Z,54.63
2017-12-20T06:17:57.068Z,51.33
2017-12-20T06:20:24.539Z,50.67
2017-12-20T06:22:52.043Z,54.10
2017-12-20T06:25:20.636Z,53.47
2017-12-20T06:27:48.859Z,49.60
2017-12-20T06:30:16.340Z,50.73
2017-12-20T06:32:43.845Z,50.73
2017-12-20T06:35:11.471Z,55.77
2017-12-20T06:37:39.715Z,50.80
2017-12-20T06:40:07.255Z,53.87
2017-12-20T06:42:34.738Z,54.43
2017-12-20T06:45:02.221Z,51.63
2017-12-20T06:47:29.691Z,55.07
2017-12-20T06:49:57.968Z,55.07
2017-12-20T06:52:26.314Z,53.57
2017-12-20T06:54:53.913Z,50.50
2017-12-20T06:57:22.170Z,55.70
2017-12-20T06:59:50.406Z,54.53
2017-12-20T07:02:17.935Z,49.30
2017-12-20T07:04:46.402Z,54.67
2017-12-20T07:07:14.671Z,55.77
2017-12-20T07:09:43.018Z,53.20
2017-12-20T07:12:10.486Z,55.27
2017-12-20T07:14:37.966Z,54.50
2017-12-20T07:17:06.222Z,55.37
2017-12-20T07:19:33.691Z,55.97
2017-12-20T07:22:01.230Z,57.97
2017-12-20T07:24:28.716Z,56.77
2017-12-20T07:26:56.258Z,56.90
2017-12-20T07:29:23.732Z,60.00
2017-12-20T07:31:51.210Z,59.63
2017-12-20T07:34:19.441Z,56.17
2017-12-20T07:36:46.923Z,56.13
2017-12-20T07:39:15.167Z,55.20
2017-12-20T07:41:42.648Z,61.37
2017-12-20T07:44:10.139Z,61.23
2017-12-20T07:46:38.414Z,60.03
2017-12-20T07:49:05.993Z,57.40
2017-12-20T07:51:33.478Z,57.50
2017-12-20T07:54:00.960Z,58.97
2017-12-20T07:56:29.257Z,58.57
2017-12-20T07:58:56.820Z,56.50
2017-12-20T08:01:25.087Z,54.77
2017-12-20T08:03:52.559Z,57.87
2017-12-20T08:06:20.039Z,62.07
2017-12-20T08:08:47.577Z,55.70
2017-12-20T08:11:15.819Z,56.83
2017-12-20T08:13:43.383Z,58.20
2017-12-20T08:16:11.658Z,59.00
2017-12-20T08:18:39.137Z,58.53
2017-12-20T08:21:08.153Z,57.60
2017-12-20T08:23:36.403Z,53.97
2017-12-20T08:26:04.655Z,59.47
2017-12-20T08:28:32.307Z,55.17
2017-12-20T08:30:59.775Z,55.30
2017-12-20T08:33:27.258Z,59.97
2017-12-20T08:35:54.735Z,55.33
2017-12-20T08:38:22.985Z,53.87
2017-12-20T08:40:50.460Z,52.97
2017-12-20T08:43:18.682Z,52.10
2017-12-20T08:45:46.239Z,55.10
2017-12-20T08:48:13.747Z,56.03
2017-12-20T08:50:51.551Z,51.20
2017-12-20T08:53:19.030Z,51.47
2017-12-20T08:55:47.484Z,51.70
2017-12-20T08:58:15.166Z,50.00
2017-12-20T09:00:42.686Z,50.67
2017-12-20T09:03:10.221Z,54.10
2017-12-20T09:05:37.704Z,49.13
2017-12-20T09:08:05.180Z,50.70
2017-12-20T09:10:32.810Z,50.10
2017-12-20T09:13:00.324Z,53.10
2017-12-20T09:15:27.801Z,54.20
2017-12-20T09:17:56.058Z,54.37
2017-12-20T09:20:23.534Z,53.60
2017-12-20T09:22:51.810Z,54.63
2017-12-20T09:25:20.068Z,53.90
2017-12-20T09:27:47.567Z,55.00
2017-12-20T09:30:15.138Z,53.00
2017-12-20T09:32:42.760Z,55.07
2017-12-20T09:35:10.424Z,51.80
2017-12-20T09:37:37.936Z,54.33
2017-12-20T09:40:05.550Z,56.30
2017-12-20T09:42:33.148Z,52.43
2017-12-20T09:45:00.737Z,50.53
2017-12-20T09:47:28.287Z,51.40
2017-12-20T09:49:55.976Z,50.77
2017-12-20T09:52:23.657Z,51.73
2017-12-20T09:54:51.973Z,48.97
2017-12-20T09:57:19.649Z,49.47
2017-12-20T09:59:47.456Z,45.10
2017-12-20T10:02:14.958Z,50.77
2017-12-20T10:04:42.484Z,42.43
2017-12-20T10:07:10.184Z,45.03
2017-12-20T10:09:38.923Z,52.60
2017-12-20T10:12:06.463Z,52.90
2017-12-20T10:14:34.198Z,48.93
2017-12-20T10:17:02.597Z,46.47
2017-12-20T10:19:30.086Z,51.87
2017-12-20T10:21:57.563Z,51.70
2017-12-20T10:24:26.575Z,50.97
2017-12-20T10:26:54.855Z,51.03
2017-12-20T10:29:23.123Z,50.33
2017-12-20T10:31:51.787Z,41.93
2017-12-20T10:34:20.599Z,43.90
2017-12-20T10:36:48.886Z,45.03
2017-12-20T10:39:17.787Z,41.20
2017-12-20T10:41:45.489Z,40.33
2017-12-20T10:44:13.014Z,40.23
2017-12-20T10:46:40.766Z,38.20
2017-12-20T10:49:09.219Z,36.90
2017-12-20T10:51:37.069Z,36.93
2017-12-20T10:54:04.743Z,37.67
2017-12-20T10:56:32.314Z,38.87
2017-12-20T10:58:59.802Z,36.93
2017-12-20T11:01:28.253Z,38.23
2017-12-20T11:03:57.386Z,35.13
2017-12-20T11:06:25.651Z,32.83
2017-12-20T11:08:53.753Z,34.53
2017-12-20T11:11:21.398Z,35.93
2017-12-20T11:13:49.630Z,34.57
2017-12-20T11:16:17.249Z,29.97
2017-12-20T11:18:45.586Z,30.90
2017-12-20T11:21:13.066Z,37.57
2017-12-20T11:23:41.647Z,38.23
2017-12-20T11:26:10.884Z,33.20
2017-12-20T11:28:38.762Z,35.20
2017-12-20T11:31:06.367Z,33.27
2017-12-20T11:33:34.365Z,35.20
2017-12-20T11:36:03.306Z,35.23
2017-12-20T11:38:30.846Z,32.20
2017-12-20T11:40:58.368Z,34.30
2017-12-20T11:43:26.706Z,31.37
2017-12-20T11:45:54.248Z,31.03
2017-12-20T11:48:22.567Z,30.73
2017-12-20T11:50:50.067Z,30.90
2017-12-20T11:53:18.741Z,32.20
2017-12-20T11:55:46.996Z,30.27
2017-12-20T11:58:15.653Z,29.60
2017-12-20T12:00:44.052Z,30.00
2017-12-20T12:03:11.875Z,25.63
2017-12-20T12:05:39.504Z,27.40
2017-12-20T12:08:07.813Z,30.27
2017-12-20T12:10:35.439Z,28.93
2017-12-20T12:13:03.738Z,25.53
2017-12-20T12:15:32.175Z,28.50
2017-12-20T12:17:59.698Z,34.07
2017-12-20T12:20:27.190Z,26.90
2017-12-20T12:22:55.054Z,30.73
2017-12-20T12:25:22.588Z,29.83
2017-12-20T12:27:50.255Z,27.90
2017-12-20T12:30:17.883Z,26.57
2017-12-20T12:32:46.154Z,28.83
2017-12-20T12:35:14.992Z,27.23
2017-12-20T12:37:42.535Z,25.30
2017-12-20T12:40:10.046Z,26.80
2017-12-20T12:42:37.523Z,24.90
2017-12-20T12:45:05.795Z,23.23
2017-12-20T12:47:34.064Z,23.00
2017-12-20T12:50:01.544Z,23.47
2017-12-20T12:52:29.894Z,23.70
2017-12-20T12:54:58.151Z,23.80
2017-12-20T12:57:26.634Z,20.80
2017-12-20T12:59:54.239Z,21.30
2017-12-20T13:02:24.097Z,23.80
2017-12-20T13:04:52.060Z,24.63
2017-12-20T13:07:19.632Z,27.57
2017-12-20T13:09:47.420Z,26.87
2017-12-20T13:12:14.915Z,25.53
2017-12-20T13:14:42.378Z,24.40
2017-12-20T13:17:09.962Z,25.00
2017-12-20T13:19:37.432Z,26.70
2017-12-20T13:22:04.937Z,27.10
2017-12-20T13:24:33.208Z,24.97
2017-12-20T13:27:00.836Z,27.50
2017-12-20T13:29:29.620Z,26.30
2017-12-20T13:31:57.119Z,23.80
2017-12-20T13:34:25.352Z,25.17
2017-12-20T13:36:52.839Z,27.20
2017-12-20T13:39:20.314Z,27.33
2017-12-20T13:41:47.787Z,25.03
2017-12-20T13:44:16.066Z,23.70
2017-12-20T13:46:44.331Z,24.40
2017-12-20T13:49:12.594Z,22.10
2017-12-20T13:51:40.067Z,23.60
2017-12-20T13:54:07.535Z,24.93
2017-12-20T13:56:35.790Z,27.20
2017-12-20T13:59:03.285Z,23.67
2017-12-20T14:01:30.779Z,23.30
2017-12-20T14:03:58.247Z,25.13
2017-12-20T14:06:25.730Z,21.97
2017-12-20T14:08:53.197Z,23.30
2017-12-20T14:11:21.826Z,25.40
2017-12-20T14:13:49.375Z,25.43
2017-12-20T14:16:16.866Z,26.63
2017-12-20T14:18:44.358Z,23.17
2017-12-20T14:21:11.889Z,23.03
2017-12-20T14:23:39.380Z,25.23
2017-12-20T14:26:07.620Z,22.33
2017-12-20T14:28:35.095Z,21.47
2017-12-20T14:31:02.588Z,23.57
2017-12-20T14:33:31.036Z,24.60
2017-12-20T14:35:58.498Z,25.00
2017-12-20T14:38:25.978Z,26.60
2017-12-20T14:40:54.267Z,25.67
2017-12-20T14:43:21.759Z,27.03
2017-12-20T14:45:49.311Z,22.30
2017-12-20T14:48:16.807Z,23.07
2017-12-20T14:50:44.994Z,22.83
2017-12-20T14:53:12.414Z,22.20
2017-12-20T14:55:39.936Z,23.40
2017-12-20T14:58:08.444Z,25.37
2017-12-20T15:00:36.098Z,23.27
2017-12-20T15:03:03.822Z,23.67
2017-12-20T15:05:36.573Z,22.80
2017-12-20T15:08:08.666Z,22.77
2017-12-20T15:10:41.605Z,23.27
2017-12-20T15:13:12.339Z,24.40
2017-12-20T15:15:44.959Z,23.17
2017-12-20T15:18:17.494Z,23.87
2017-12-20T15:20:48.745Z,20.47
2017-12-20T15:23:19.017Z,23.40
2017-12-20T15:25:51.672Z,22.70
2017-12-20T15:28:23.914Z,23.23
2017-12-20T15:31:00.169Z,23.33
2017-12-20T15:33:33.577Z,21.80
2017-12-20T15:36:11.582Z,24.60
2017-12-20T15:38:46.004Z,24.90
2017-12-20T15:41:22.934Z,20.93
2017-12-20T15:43:55.868Z,22.03
2017-12-20T15:46:32.248Z,24.67
2017-12-20T15:49:04.294Z,21.93
2017-12-20T15:51:35.549Z,23.53
2017-12-20T15:54:08.535Z,23.67
2017-12-20T15:56:40.396Z,23.63
2017-12-20T15:59:11.425Z,23.93
2017-12-20T16:01:52.156Z,23.17
2017-12-20T16:04:22.008Z,23.90
2017-12-20T16:06:59.579Z,23.23
2017-12-20T16:09:29.724Z,21.27
2017-12-20T16:12:00.496Z,22.40
2017-12-20T16:14:34.752Z,24.70
2017-12-20T16:17:05.440Z,24.17
2017-12-20T16:19:32.921Z,26.67
2017-12-20T16:22:00.425Z,29.10
2017-12-20T16:24:28.678Z,29.50
2017-12-20T16:26:56.156Z,26.70
2017-12-20T16:29:24.629Z,26.60
2017-12-20T16:31:52.887Z,32.83
2017-12-20T16:34:20.376Z,29.53
2017-12-20T16:36:49.409Z,36.23
2017-12-20T16:39:17.828Z,32.97
2017-12-20T16:41:46.886Z,30.40
2017-12-20T16:44:16.201Z,32.60
2017-12-20T16:46:43.709Z,35.57
2017-12-20T16:49:12.065Z,37.47
2017-12-20T16:51:39.765Z,31.60
2017-12-20T16:54:08.148Z,36.03
2017-12-20T16:56:35.716Z,35.20
2017-12-20T16:59:03.188Z,36.30
2017-12-20T17:01:30.773Z,36.80
2017-12-20T17:03:58.266Z,29.77
2017-12-20T17:06:25.778Z,26.63
2017-12-20T17:08:53.254Z,28.37
2017-12-20T17:11:20.766Z,28.70
2017-12-20T17:13:48.992Z,24.40
2017-12-20T17:16:16.597Z,26.50
2017-12-20T17:18:44.099Z,24.10
2017-12-20T17:21:11.653Z,24.67
2017-12-20T17:23:39.152Z,26.50
2017-12-20T17:26:06.861Z,25.70
2017-12-20T17:28:34.464Z,25.93
2017-12-20T17:31:02.251Z,29.87
2017-12-20T17:33:31.583Z,27.93
2017-12-20T17:35:59.117Z,26.40
2017-12-20T17:38:27.362Z,26.13
2017-12-20T17:40:55.162Z,26.07
2017-12-20T17:43:23.410Z,25.73
2017-12-20T17:45:50.898Z,24.37
2017-12-20T17:48:19.166Z,21.33
2017-12-20T17:50:47.412Z,23.60
2017-12-20T17:53:14.937Z,23.70
2017-12-20T17:55:42.450Z,21.70
2017-12-20T17:58:10.314Z,23.97
2017-12-20T18:00:37.788Z,21.93
2017-12-20T18:03:06.313Z,23.40
2017-12-20T18:05:35.083Z,18.60
2017-12-20T18:08:03.422Z,24.20
2017-12-20T18:10:30.904Z,22.27
2017-12-20T18:12:58.583Z,24.90
2017-12-20T18:15:26.079Z,23.87
2017-12-20T18:17:53.553Z,23.17
2017-12-20T18:20:21.356Z,22.37
2017-12-20T18:22:49.039Z,24.13
2017-12-20T18:25:16.524Z,23.70
2017-12-20T18:27:44.002Z,26.17
2017-12-20T18:30:11.467Z,24.60
2017-12-20T18:32:39.746Z,23.60
2017-12-20T18:35:07.224Z,22.20
2017-12-20T18:37:35.467Z,23.17
2017-12-20T18:40:02.944Z,20.00
2017-12-20T18:42:30.482Z,22.63
2017-12-20T18:44:57.908Z,22.10
2017-12-20T18:50:29.727Z,19.67
2017-12-20T18:52:57.243Z,18.23
2017-12-20T18:55:25.553Z,18.23
2017-12-20T18:57:56.022Z,16.50
2017-12-20T19:00:24.715Z,17.67
2017-12-20T19:02:52.227Z,21.00
2017-12-20T19:05:20.738Z,20.00
2017-12-20T19:07:48.223Z,20.07
2017-12-20T19:10:15.696Z,22.10
2017-12-20T19:12:43.155Z,23.67
2017-12-20T19:15:11.427Z,24.80
2017-12-20T19:17:39.686Z,23.60
2017-12-20T19:20:07.156Z,23.10
2017-12-20T19:22:35.390Z,24.60
2017-12-20T19:25:03.349Z,26.43
2017-12-20T19:27:30.841Z,25.80
2017-12-20T19:29:58.291Z,25.00
2017-12-20T19:32:26.597Z,26.30
2017-12-20T19:34:54.586Z,24.80
2017-12-20T19:37:22.072Z,29.47
2017-12-20T19:39:49.569Z,26.13
2017-12-20T19:42:17.047Z,27.70
2017-12-20T19:44:45.307Z,25.30
2017-12-20T19:47:12.770Z,25.00
2017-12-20T19:49:41.850Z,25.17
2017-12-20T19:52:09.618Z,24.00
2017-12-20T19:54:37.087Z,22.83
2017-12-20T19:57:06.675Z,24.13
2017-12-20T19:59:35.179Z,25.10
2017-12-20T20:02:03.439Z,26.83
2017-12-20T20:04:31.162Z,26.77
2017-12-20T20:06:58.631Z,24.80
2017-12-20T20:09:26.199Z,24.53
2017-12-20T20:11:54.456Z,25.97
2017-12-20T20:14:22.933Z,25.03
2017-12-20T20:16:52.555Z,24.00
2017-12-20T20:19:20.255Z,22.30
2017-12-20T20:21:52.129Z,26.80
2017-12-20T20:24:19.611Z,21.63
2017-12-20T20:26:47.158Z,25.40
2017-12-20T20:29:14.703Z,21.47
2017-12-20T20:31:43.348Z,22.30
2017-12-20T20:34:11.755Z,21.30
2017-12-20T20:36:39.441Z,22.10
2017-12-20T20:39:07.003Z,22.50
2017-12-20T20:41:35.790Z,22.80
2017-12-20T20:44:05.499Z,24.77
2017-12-20T20:46:32.985Z,25.37
2017-12-20T20:49:00.464Z,23.33
2017-12-20T20:51:28.100Z,24.27
2017-12-20T20:53:59.234Z,20.83
2017-12-20T20:56:26.772Z,24.93
2017-12-20T20:58:55.361Z,21.90
2017-12-20T21:01:22.834Z,19.90
2017-12-20T21:03:50.295Z,20.40
2017-12-20T21:06:19.023Z,18.20
2017-12-20T21:08:46.471Z,20.57
2017-12-20T21:11:14.746Z,18.10
2017-12-20T21:13:42.990Z,17.77
2017-12-20T21:16:10.541Z,19.57
2017-12-20T21:18:38.047Z,18.47
2017-12-20T21:21:07.102Z,19.20
2017-12-20T21:23:34.604Z,17.73
2017-12-20T21:26:02.651Z,17.17
2017-12-20T21:28:30.341Z,18.17
2017-12-20T21:30:58.706Z,21.10
2017-12-20T21:33:26.206Z,20.30
2017-12-20T21:35:53.734Z,19.07
2017-12-20T21:38:22.009Z,20.57
2017-12-20T21:40:49.790Z,19.50
2017-12-20T21:43:17.910Z,17.00
2017-12-20T21:45:46.517Z,18.80
2017-12-20T21:48:13.976Z,18.00
2017-12-20T21:50:42.226Z,17.00
2017-12-20T21:53:09.989Z,19.47
2017-12-20T21:55:37.496Z,20.33
2017-12-20T21:58:06.171Z,18.50
2017-12-20T22:00:33.738Z,18.87
2017-12-20T22:03:01.242Z,18.77
2017-12-20T22:05:28.705Z,18.77
2017-12-20T22:07:56.192Z,18.00
2017-12-20T22:10:23.650Z,18.30
2017-12-20T22:12:52.692Z,18.17
2017-12-20T22:15:20.195Z,18.50
2017-12-20T22:17:47.680Z,18.33
2017-12-20T22:20:15.168Z,16.63
2017-12-20T22:22:42.668Z,16.93
2017-12-20T22:25:10.177Z,17.17
2017-12-20T22:27:37.665Z,18.50
2017-12-20T22:30:05.833Z,17.27
2017-12-20T22:32:33.321Z,15.83
2017-12-20T22:35:00.855Z,15.87
2017-12-20T22:37:28.326Z,14.50
2017-12-20T22:39:55.874Z,16.60
2017-12-20T22:42:23.350Z,14.67
2017-12-20T22:44:50.936Z,14.90
2017-12-20T22:47:18.429Z,14.20
2017-12-20T22:49:46.217Z,15.10
2017-12-20T22:52:13.692Z,14.43
2017-12-20T22:54:41.251Z,15.43
2017-12-20T22:57:08.717Z,14.53
2017-12-20T22:59:36.222Z,14.50
2017-12-20T23:02:03.701Z,12.70
2017-12-20T23:04:31.400Z,14.10
2017-12-20T23:06:58.914Z,15.83
2017-12-20T23:09:26.387Z,13.83
2017-12-20T23:11:54.642Z,16.40
2017-12-20T23:14:22.124Z,14.70
2017-12-20T23:16:50.393Z,16.90
2017-12-20T23:19:17.901Z,14.90
2017-12-20T23:21:45.370Z,15.63
2017-12-20T23:24:12.865Z,14.50
2017-12-20T23:26:41.276Z,14.23
2017-12-20T23:29:08.756Z,16.40
2017-12-20T23:31:36.255Z,15.60
2017-12-20T23:34:04.643Z,14.33
2017-12-20T23:36:32.879Z,15.60
2017-12-20T23:39:00.357Z,15.93
2017-12-20T23:41:27.846Z,15.33
2017-12-20T23:43:58.003Z,14.03
2017-12-20T23:46:25.487Z,14.90
2017-12-20T23:48:53.280Z,14.40
2017-12-20T23:51:21.855Z,14.37
2017-12-20T23:53:49.314Z,14.40
2017-12-20T23:56:16.850Z,14.50
2017-12-20T23:58:44.391Z,15.50
